createdAt,value
2018-09-23T00:01:16.611Z,79.20
2018-09-23T00:03:48.451Z,79.60
2018-09-23T00:06:21.339Z,79.80
2018-09-23T00:08:53.750Z,79.70
2018-09-23T00:11:26.364Z,79.50
2018-09-23T00:13:58.371Z,79.30
2018-09-23T00:16:30.568Z,79.10
2018-09-23T00:19:02.665Z,79.60
2018-09-23T00:21:34.777Z,78.50
2018-09-23T00:24:06.714Z,78.20
2018-09-23T00:26:38.558Z,77.90
2018-09-23T00:29:10.676Z,78.50
2018-09-23T00:31:42.536Z,78.10
2018-09-23T00:34:14.658Z,78.50
2018-09-23T00:36:46.520Z,78.30
2018-09-23T00:39:18.474Z,78.20
2018-09-23T00:41:50.721Z,78.10
2018-09-23T00:44:22.539Z,78.40
2018-09-23T00:46:55.633Z,78.60
2018-09-23T00:49:27.807Z,78.70
2018-09-23T00:52:00.543Z,79.00
2018-09-23T00:54:32.497Z,79.10
2018-09-23T00:57:04.689Z,79.00
2018-09-23T00:59:37.952Z,79.30
2018-09-23T01:02:10.144Z,79.70
2018-09-23T01:04:42.127Z,80.00
2018-09-23T01:07:14.648Z,80.20
2018-09-23T01:09:46.560Z,79.90
2018-09-23T01:12:18.467Z,79.90
2018-09-23T01:14:51.947Z,79.90
2018-09-23T01:17:24.128Z,80.00
2018-09-23T01:19:56.519Z,79.90
2018-09-23T01:22:28.439Z,79.50
2018-09-23T01:25:01.502Z,79.30
2018-09-23T01:27:33.614Z,79.50
2018-09-23T01:30:05.796Z,79.30
2018-09-23T01:32:37.895Z,78.90
2018-09-23T01:35:09.914Z,79.40
2018-09-23T01:37:41.896Z,79.50
2018-09-23T01:40:14.035Z,79.20
2018-09-23T01:42:46.098Z,79.30
2018-09-23T01:45:18.120Z,79.40
2018-09-23T01:47:50.587Z,79.50
2018-09-23T01:50:22.540Z,79.60
2018-09-23T01:52:54.755Z,79.60
2018-09-23T01:55:27.041Z,79.80
2018-09-23T01:58:00.090Z,80.00
2018-09-23T02:00:32.112Z,80.30
2018-09-23T02:03:04.911Z,80.10
2018-09-23T02:05:36.720Z,80.10
2018-09-23T02:08:08.570Z,80.00
2018-09-23T02:10:40.552Z,79.90
2018-09-23T02:13:12.876Z,80.00
2018-09-23T02:15:44.653Z,80.20
2018-09-23T02:18:16.473Z,80.10
2018-09-23T02:20:48.631Z,80.00
2018-09-23T02:23:20.564Z,80.10
2018-09-23T02:25:52.496Z,80.30
2018-09-23T02:28:24.781Z,80.60
2018-09-23T02:30:56.897Z,80.50
2018-09-23T02:33:28.746Z,80.10
2018-09-23T02:36:00.760Z,79.70
2018-09-23T02:38:32.638Z,79.60
2018-09-23T02:41:05.431Z,79.70
2018-09-23T02:43:37.188Z,79.50
2018-09-23T02:46:09.781Z,79.60
2018-09-23T02:48:41.874Z,79.70
2018-09-23T02:51:14.777Z,79.90
2018-09-23T02:53:46.654Z,79.70
2018-09-23T02:56:18.754Z,79.70
2018-09-23T02:58:50.902Z,79.80
2018-09-23T03:01:23.183Z,80.00
2018-09-23T03:03:56.821Z,80.20
2018-09-23T03:06:28.914Z,80.40
2018-09-23T03:09:01.075Z,80.50
2018-09-23T03:11:33.067Z,80.40
2018-09-23T03:14:04.955Z,80.40
2018-09-23T03:16:37.119Z,80.30
2018-09-23T03:19:08.674Z,80.20
2018-09-23T03:21:40.686Z,80.30
2018-09-23T03:24:12.967Z,80.30
2018-09-23T03:26:45.197Z,80.30
2018-09-23T03:29:17.951Z,80.00
2018-09-23T03:31:50.050Z,81.10
2018-09-23T03:34:23.132Z,80.20
2018-09-23T03:36:55.106Z,80.20
2018-09-23T03:39:27.140Z,80.70
2018-09-23T03:41:58.819Z,80.80
2018-09-23T03:44:30.619Z,81.10
2018-09-23T03:47:02.615Z,81.40
2018-09-23T03:49:34.570Z,81.40
2018-09-23T03:52:06.785Z,81.50
2018-09-23T03:54:38.732Z,81.70
2018-09-23T03:57:10.695Z,81.70
2018-09-23T03:59:42.549Z,81.60
2018-09-23T04:02:14.967Z,81.80
2018-09-23T04:04:47.038Z,82.00
2018-09-23T04:07:19.017Z,81.80
2018-09-23T04:09:50.931Z,82.20
2018-09-23T04:12:23.132Z,82.20
2018-09-23T04:14:55.020Z,82.20
2018-09-23T04:17:26.939Z,82.20
2018-09-23T04:19:59.141Z,82.40
2018-09-23T04:22:34.830Z,82.50
2018-09-23T04:25:06.743Z,82.50
2018-09-23T04:27:38.996Z,82.40
2018-09-23T04:30:11.000Z,82.30
2018-09-23T04:32:42.812Z,82.90
2018-09-23T04:35:15.006Z,83.00
2018-09-23T04:37:47.741Z,83.10
2018-09-23T04:40:19.792Z,83.30
2018-09-23T04:42:51.652Z,83.40
2018-09-23T04:45:23.560Z,83.40
2018-09-23T04:47:56.490Z,83.10
2018-09-23T04:50:28.085Z,82.80
2018-09-23T04:52:59.767Z,82.30
2018-09-23T04:55:31.879Z,82.10
2018-09-23T04:58:04.313Z,82.20
2018-09-23T05:00:36.224Z,82.40
2018-09-23T05:03:08.325Z,82.50
2018-09-23T05:05:40.981Z,82.50
2018-09-23T05:08:12.605Z,82.30
2018-09-23T05:10:44.748Z,82.00
2018-09-23T05:13:17.333Z,81.70
2018-09-23T05:15:50.150Z,81.20
2018-09-23T05:18:22.378Z,80.80
2018-09-23T05:20:54.426Z,80.80
2018-09-23T05:23:27.255Z,81.40
2018-09-23T05:25:58.970Z,80.80
2018-09-23T05:28:31.831Z,80.60
2018-09-23T05:31:04.180Z,80.20
2018-09-23T05:33:36.182Z,80.40
2018-09-23T05:36:08.639Z,80.10
2018-09-23T05:38:40.596Z,80.10
2018-09-23T05:41:12.705Z,79.80
2018-09-23T05:43:44.406Z,79.20
2018-09-23T05:46:16.767Z,79.00
2018-09-23T05:48:49.167Z,78.40
2018-09-23T05:51:21.295Z,76.90
2018-09-23T05:53:53.585Z,75.80
2018-09-23T05:56:26.062Z,75.50
2018-09-23T05:58:58.816Z,74.80
2018-09-23T06:01:30.608Z,74.10
2018-09-23T06:04:02.540Z,72.60
2018-09-23T06:06:34.318Z,70.10
2018-09-23T06:09:06.991Z,69.10
2018-09-23T06:11:39.399Z,69.60
2018-09-23T06:14:11.519Z,69.70
2018-09-23T06:16:44.420Z,68.50
2018-09-23T06:19:18.780Z,67.00
2018-09-23T06:21:50.880Z,63.60
2018-09-23T06:24:23.197Z,63.40
2018-09-23T06:26:55.668Z,62.50
2018-09-23T06:29:28.087Z,61.30
2018-09-23T06:31:59.680Z,59.20
2018-09-23T06:34:31.465Z,58.40
2018-09-23T06:37:03.706Z,57.90
2018-09-23T06:39:35.965Z,57.60
2018-09-23T06:42:08.137Z,57.50
2018-09-23T06:44:40.303Z,56.70
2018-09-23T06:47:12.363Z,57.00
2018-09-23T06:49:45.046Z,55.30
2018-09-23T06:52:17.557Z,55.70
2018-09-23T06:54:51.029Z,55.30
2018-09-23T06:57:23.387Z,54.10
2018-09-23T06:59:55.828Z,53.80
2018-09-23T07:02:27.974Z,52.90
2018-09-23T07:04:59.973Z,52.80
2018-09-23T07:07:33.263Z,52.70
2018-09-23T07:10:05.931Z,52.90
2018-09-23T07:12:38.153Z,51.60
2018-09-23T07:15:10.480Z,52.20
2018-09-23T07:17:42.438Z,52.30
2018-09-23T07:20:14.829Z,52.10
2018-09-23T07:22:47.265Z,51.30
2018-09-23T07:25:19.712Z,51.50
2018-09-23T07:27:51.896Z,51.40
2018-09-23T07:30:24.037Z,50.50
2018-09-23T07:32:56.058Z,50.70
2018-09-23T07:35:28.281Z,50.00
2018-09-23T07:38:00.705Z,50.10
2018-09-23T07:40:33.797Z,50.20
2018-09-23T07:43:05.815Z,49.40
2018-09-23T07:45:37.940Z,49.10
2018-09-23T07:48:10.497Z,49.00
2018-09-23T07:50:43.958Z,48.80
2018-09-23T07:53:16.730Z,48.40
2018-09-23T07:55:48.942Z,47.50
2018-09-23T07:58:20.969Z,47.90
2018-09-23T08:00:52.851Z,47.70
2018-09-23T08:03:25.387Z,47.30
2018-09-23T08:05:57.779Z,47.20
2018-09-23T08:08:30.514Z,46.30
2018-09-23T08:11:02.742Z,47.60
2018-09-23T08:13:35.028Z,47.60
2018-09-23T08:16:07.359Z,46.90
2018-09-23T08:18:39.671Z,46.70
2018-09-23T08:21:11.804Z,46.80
2018-09-23T08:23:43.526Z,46.30
2018-09-23T08:26:16.504Z,46.50
2018-09-23T08:28:48.745Z,47.00
2018-09-23T08:31:20.764Z,45.60
2018-09-23T08:33:53.414Z,46.20
2018-09-23T08:36:26.104Z,46.70
2018-09-23T08:38:58.400Z,46.20
2018-09-23T08:41:30.527Z,46.30
2018-09-23T08:44:03.218Z,45.40
2018-09-23T08:46:35.551Z,45.10
2018-09-23T08:49:07.981Z,45.60
2018-09-23T08:51:40.570Z,45.10
2018-09-23T08:54:12.755Z,45.00
2018-09-23T08:56:45.229Z,44.20
2018-09-23T08:59:17.602Z,44.60
2018-09-23T09:01:49.845Z,45.10
2018-09-23T09:04:22.154Z,44.60
2018-09-23T09:06:53.984Z,44.70
2018-09-23T09:09:26.050Z,45.20
2018-09-23T09:11:58.292Z,43.70
2018-09-23T09:14:30.680Z,43.40
2018-09-23T09:17:02.768Z,43.50
2018-09-23T09:19:35.350Z,43.80
2018-09-23T09:22:07.592Z,43.80
2018-09-23T09:24:39.482Z,44.50
2018-09-23T09:27:11.791Z,45.60
2018-09-23T09:29:44.542Z,44.20
2018-09-23T09:32:17.673Z,45.00
2018-09-23T09:34:50.398Z,44.70
2018-09-23T09:37:24.714Z,44.70
2018-09-23T09:39:57.057Z,45.20
2018-09-23T09:42:29.097Z,44.10
2018-09-23T09:45:01.235Z,43.70
2018-09-23T09:47:33.795Z,44.20
2018-09-23T09:50:06.295Z,44.10
2018-09-23T09:52:38.606Z,43.10
2018-09-23T09:55:11.046Z,43.30
2018-09-23T09:57:42.815Z,42.40
2018-09-23T10:00:18.646Z,43.50
2018-09-23T10:02:50.604Z,42.90
2018-09-23T10:05:23.112Z,42.40
2018-09-23T10:07:57.328Z,41.50
2018-09-23T10:10:31.945Z,41.50
2018-09-23T10:13:04.008Z,42.10
2018-09-23T10:15:35.577Z,41.10
2018-09-23T10:18:07.902Z,40.90
2018-09-23T10:20:40.445Z,41.50
2018-09-23T10:23:12.813Z,41.80
2018-09-23T10:25:45.313Z,40.50
2018-09-23T10:28:17.488Z,40.70
2018-09-23T10:30:49.657Z,40.40
2018-09-23T10:33:21.343Z,40.00
2018-09-23T10:35:53.258Z,41.50
2018-09-23T10:38:25.187Z,40.80
2018-09-23T10:40:57.331Z,41.00
2018-09-23T10:43:29.435Z,41.40
2018-09-23T10:46:01.608Z,40.40
2018-09-23T10:48:34.438Z,40.10
2018-09-23T10:51:07.301Z,40.60
2018-09-23T10:53:39.056Z,40.70
2018-09-23T10:56:11.183Z,39.40
2018-09-23T10:58:43.423Z,39.90
2018-09-23T11:01:15.708Z,39.50
2018-09-23T11:03:47.868Z,39.40
2018-09-23T11:06:20.139Z,39.10
2018-09-23T11:08:52.559Z,39.10
2018-09-23T11:11:24.527Z,39.00
2018-09-23T11:13:56.540Z,38.60
2018-09-23T11:16:28.571Z,39.00
2018-09-23T11:19:01.077Z,38.50
2018-09-23T11:21:33.296Z,37.70
2018-09-23T11:24:05.896Z,38.20
2018-09-23T11:26:38.147Z,38.00
2018-09-23T11:29:10.064Z,38.20
2018-09-23T11:31:42.180Z,39.00
2018-09-23T11:34:14.212Z,38.60
2018-09-23T11:36:46.417Z,38.40
2018-09-23T11:39:18.580Z,38.80
2018-09-23T11:41:50.872Z,39.40
2018-09-23T11:44:22.901Z,39.90
2018-09-23T11:46:54.573Z,40.00
2018-09-23T11:49:27.285Z,39.20
2018-09-23T11:52:00.522Z,38.50
2018-09-23T11:54:34.901Z,38.30
2018-09-23T11:57:07.740Z,39.20
2018-09-23T11:59:41.670Z,38.40
2018-09-23T12:02:14.438Z,38.50
2018-09-23T12:04:46.452Z,38.40
2018-09-23T12:07:18.975Z,38.00
2018-09-23T12:09:52.745Z,38.00
2018-09-23T12:12:24.908Z,38.40
2018-09-23T12:14:57.526Z,38.80
2018-09-23T12:17:30.020Z,38.30
2018-09-23T12:20:02.249Z,38.70
2018-09-23T12:22:33.995Z,38.00
2018-09-23T12:25:06.255Z,38.40
2018-09-23T12:27:38.895Z,38.30
2018-09-23T12:30:11.204Z,38.90
2018-09-23T12:32:43.883Z,36.80
2018-09-23T12:35:16.567Z,37.00
2018-09-23T12:37:48.821Z,37.50
2018-09-23T12:40:20.923Z,38.50
2018-09-23T12:42:52.713Z,37.80
2018-09-23T12:45:25.698Z,39.10
2018-09-23T12:47:57.970Z,37.50
2018-09-23T12:50:31.011Z,38.00
2018-09-23T12:53:03.290Z,38.90
2018-09-23T12:55:35.989Z,38.60
2018-09-23T12:58:09.104Z,37.30
2018-09-23T13:00:41.630Z,38.90
2018-09-23T13:03:14.310Z,38.10
2018-09-23T13:05:46.665Z,38.60
2018-09-23T13:08:18.985Z,37.90
2018-09-23T13:10:51.370Z,38.30
2018-09-23T13:13:23.458Z,38.50
2018-09-23T13:15:55.665Z,39.00
2018-09-23T13:18:27.631Z,38.60
2018-09-23T13:20:59.674Z,38.40
2018-09-23T13:23:32.068Z,39.10
2018-09-23T13:26:04.506Z,39.50
2018-09-23T13:28:37.226Z,39.60
2018-09-23T13:31:09.199Z,39.00
2018-09-23T13:33:41.649Z,39.20
2018-09-23T13:36:14.099Z,39.10
2018-09-23T13:38:46.259Z,38.30
2018-09-23T13:41:18.475Z,39.40
2018-09-23T13:43:50.747Z,39.60
2018-09-23T13:46:22.965Z,39.50
2018-09-23T13:48:55.237Z,39.20
2018-09-23T13:51:27.945Z,40.00
2018-09-23T13:54:00.611Z,38.60
2018-09-23T13:56:32.344Z,39.40
2018-09-23T13:59:05.409Z,40.00
2018-09-23T14:01:37.555Z,39.90
2018-09-23T14:04:10.096Z,40.70
2018-09-23T14:06:42.660Z,40.50
2018-09-23T14:09:14.946Z,40.20
2018-09-23T14:11:47.336Z,40.80
2018-09-23T14:14:20.023Z,40.30
2018-09-23T14:16:52.549Z,40.30
2018-09-23T14:19:24.708Z,40.80
2018-09-23T14:21:57.204Z,41.10
2018-09-23T14:24:30.094Z,41.00
2018-09-23T14:27:02.388Z,40.90
2018-09-23T14:29:34.546Z,40.80
2018-09-23T14:32:06.585Z,41.20
2018-09-23T14:34:39.663Z,41.10
2018-09-23T14:37:12.098Z,41.10
2018-09-23T14:39:44.166Z,41.90
2018-09-23T14:42:16.574Z,41.70
2018-09-23T14:44:48.932Z,41.80
2018-09-23T14:47:21.939Z,42.00
2018-09-23T14:49:53.701Z,42.20
2018-09-23T14:52:26.408Z,42.30
2018-09-23T14:54:58.441Z,42.30
2018-09-23T14:57:30.891Z,42.70
2018-09-23T15:00:03.421Z,42.60
2018-09-23T15:02:35.827Z,42.60
2018-09-23T15:05:07.783Z,42.90
2018-09-23T15:07:40.129Z,43.00
2018-09-23T15:10:12.526Z,42.80
2018-09-23T15:12:46.091Z,43.20
2018-09-23T15:15:18.618Z,43.90
2018-09-23T15:17:51.151Z,43.50
2018-09-23T15:20:23.824Z,43.40
2018-09-23T15:22:56.309Z,43.10
2018-09-23T15:25:28.352Z,43.30
2018-09-23T15:28:01.105Z,43.90
2018-09-23T15:30:34.069Z,44.20
2018-09-23T15:33:07.900Z,44.60
2018-09-23T15:35:40.193Z,44.90
2018-09-23T15:38:12.359Z,45.00
2018-09-23T15:40:44.327Z,45.20
2018-09-23T15:43:16.722Z,45.20
2018-09-23T15:45:48.822Z,45.30
2018-09-23T15:48:20.917Z,45.60
2018-09-23T15:50:53.504Z,45.70
2018-09-23T15:53:26.113Z,46.00
2018-09-23T15:55:58.306Z,45.90
2018-09-23T15:58:30.362Z,46.10
2018-09-23T16:01:03.056Z,46.40
2018-09-23T16:03:35.915Z,46.60
2018-09-23T16:06:08.250Z,47.00
2018-09-23T16:08:40.541Z,47.00
2018-09-23T16:11:12.649Z,47.70
2018-09-23T16:13:45.393Z,48.10
2018-09-23T16:16:17.159Z,48.00
2018-09-23T16:18:49.666Z,48.40
2018-09-23T16:21:21.863Z,48.50
2018-09-23T16:23:54.576Z,49.60
2018-09-23T16:26:26.925Z,49.30
2018-09-23T16:28:59.227Z,49.90
2018-09-23T16:31:31.332Z,49.90
2018-09-23T16:34:03.626Z,50.30
2018-09-23T16:36:36.715Z,51.10
2018-09-23T16:39:11.311Z,51.10
2018-09-23T16:41:43.771Z,52.00
2018-09-23T16:44:16.268Z,51.90
2018-09-23T16:46:49.283Z,52.60
2018-09-23T16:49:21.373Z,52.90
2018-09-23T16:51:53.069Z,52.70
2018-09-23T16:54:24.811Z,52.90
2018-09-23T16:56:57.194Z,53.20
2018-09-23T16:59:29.599Z,54.00
2018-09-23T17:02:02.163Z,55.20
2018-09-23T17:04:35.700Z,54.90
2018-09-23T17:07:10.520Z,55.40
2018-09-23T17:09:43.708Z,55.80
2018-09-23T17:12:15.337Z,56.40
2018-09-23T17:14:47.794Z,56.60
2018-09-23T17:17:20.007Z,57.40
2018-09-23T17:19:52.226Z,57.40
2018-09-23T17:22:24.592Z,57.40
2018-09-23T17:24:56.881Z,57.60
2018-09-23T17:27:29.482Z,58.60
2018-09-23T17:30:03.569Z,58.30
2018-09-23T17:32:35.806Z,58.60
2018-09-23T17:35:08.680Z,59.00
2018-09-23T17:37:42.231Z,58.90
2018-09-23T17:40:14.705Z,58.60
2018-09-23T17:42:47.870Z,59.20
2018-09-23T17:45:19.728Z,59.30
2018-09-23T17:47:51.644Z,59.80
2018-09-23T17:50:24.368Z,59.90
2018-09-23T17:52:57.086Z,60.10
2018-09-23T17:55:29.633Z,60.40
2018-09-23T17:58:02.389Z,60.60
2018-09-23T18:00:34.903Z,61.80
2018-09-23T18:03:07.319Z,62.50
2018-09-23T18:05:39.365Z,62.80
2018-09-23T18:08:11.842Z,63.10
2018-09-23T18:10:44.468Z,63.40
2018-09-23T18:13:17.654Z,63.80
2018-09-23T18:15:50.325Z,64.10
2018-09-23T18:18:23.440Z,64.10
2018-09-23T18:20:55.710Z,64.60
2018-09-23T18:23:28.743Z,64.40
2018-09-23T18:26:01.617Z,64.70
2018-09-23T18:28:35.700Z,65.30
2018-09-23T18:31:08.932Z,65.20
2018-09-23T18:33:41.920Z,65.40
2018-09-23T18:36:14.327Z,65.20
2018-09-23T18:38:46.742Z,65.30
2018-09-23T18:41:19.461Z,66.00
2018-09-23T18:43:51.849Z,66.30
2018-09-23T18:46:24.055Z,66.30
2018-09-23T18:48:56.224Z,66.60
2018-09-23T18:51:28.458Z,66.90
2018-09-23T18:54:05.934Z,67.40
2018-09-23T18:56:38.374Z,68.20
2018-09-23T18:59:11.924Z,68.30
2018-09-23T19:01:44.668Z,68.30
2018-09-23T19:04:16.919Z,68.50
2018-09-23T19:06:49.276Z,69.00
2018-09-23T19:09:21.547Z,68.80
2018-09-23T19:11:53.356Z,68.90
2018-09-23T19:14:25.214Z,69.10
2018-09-23T19:16:57.591Z,69.20
2018-09-23T19:19:36.037Z,69.40
2018-09-23T19:22:13.373Z,69.60
2018-09-23T19:24:46.377Z,69.80
2018-09-23T19:27:19.111Z,70.00
2018-09-23T19:29:51.722Z,70.30
2018-09-23T19:32:23.608Z,70.30
2018-09-23T19:34:56.232Z,70.50
2018-09-23T19:37:28.793Z,71.00
2018-09-23T19:40:01.322Z,70.80
2018-09-23T19:42:33.963Z,70.60
2018-09-23T19:45:07.488Z,70.60
2018-09-23T19:47:39.873Z,71.20
2018-09-23T19:50:11.829Z,71.40
2018-09-23T19:52:43.669Z,71.60
2018-09-23T19:55:16.435Z,71.90
2018-09-23T19:57:49.273Z,72.00
2018-09-23T20:00:21.644Z,72.70
2018-09-23T20:02:53.960Z,72.10
2018-09-23T20:05:26.941Z,71.90
2018-09-23T20:07:59.741Z,72.20
2018-09-23T20:10:32.293Z,72.30
2018-09-23T20:13:05.082Z,73.40
2018-09-23T20:15:37.587Z,73.10
2018-09-23T20:18:10.105Z,73.30
2018-09-23T20:20:42.391Z,73.10
2018-09-23T20:23:14.686Z,72.70
2018-09-23T20:25:47.100Z,73.20
2018-09-23T20:28:19.432Z,73.60
2018-09-23T20:30:51.729Z,74.00
2018-09-23T20:33:24.201Z,74.00
2018-09-23T20:35:56.426Z,73.60
2018-09-23T20:38:28.546Z,74.20
2018-09-23T20:41:00.500Z,74.40
2018-09-23T20:43:33.438Z,74.70
2018-09-23T20:46:05.664Z,74.50
2018-09-23T20:48:37.770Z,74.80
2018-09-23T20:51:10.262Z,75.00
2018-09-23T20:53:43.014Z,75.20
2018-09-23T20:56:15.529Z,75.20
2018-09-23T20:58:47.332Z,75.70
2018-09-23T21:01:19.576Z,75.60
2018-09-23T21:03:51.841Z,76.10
2018-09-23T21:06:23.936Z,77.10
2018-09-23T21:08:56.025Z,76.40
2018-09-23T21:11:28.334Z,76.80
2018-09-23T21:14:00.905Z,78.10
2018-09-23T21:16:32.733Z,76.80
2018-09-23T21:19:05.120Z,76.90
2018-09-23T21:21:37.569Z,76.60
2018-09-23T21:24:09.649Z,77.30
2018-09-23T21:26:42.502Z,77.20
2018-09-23T21:29:15.074Z,77.00
2018-09-23T21:31:47.251Z,78.20
2018-09-23T21:34:19.080Z,78.20
2018-09-23T21:36:51.448Z,78.20
2018-09-23T21:39:23.262Z,78.50
2018-09-23T21:41:55.587Z,78.40
2018-09-23T21:44:27.633Z,78.30
2018-09-23T21:46:59.755Z,78.40
2018-09-23T21:49:32.488Z,78.50
2018-09-23T21:52:05.824Z,78.60
2018-09-23T21:54:38.204Z,79.00
2018-09-23T21:57:10.269Z,79.20
2018-09-23T21:59:42.476Z,79.50
2018-09-23T22:02:14.895Z,79.20
2018-09-23T22:04:46.943Z,79.20
2018-09-23T22:07:18.945Z,79.10
2018-09-23T22:09:52.074Z,78.90
2018-09-23T22:12:24.303Z,79.00
2018-09-23T22:14:57.275Z,79.40
2018-09-23T22:17:29.084Z,79.80
2018-09-23T22:20:01.289Z,79.50
2018-09-23T22:22:33.825Z,79.80
2018-09-23T22:25:05.791Z,79.70
2018-09-23T22:27:37.738Z,80.00
2018-09-23T22:30:10.366Z,80.20
2018-09-23T22:32:42.498Z,80.30
2018-09-23T22:35:14.482Z,80.40
2018-09-23T22:37:46.514Z,80.70
2018-09-23T22:40:18.504Z,81.10
2018-09-23T22:42:50.592Z,81.60
2018-09-23T22:45:22.792Z,81.90
2018-09-23T22:47:54.891Z,81.90
2018-09-23T22:50:27.314Z,82.00
2018-09-23T22:52:59.833Z,82.10
2018-09-23T22:55:31.816Z,82.00
2018-09-23T22:58:04.904Z,82.70
2018-09-23T23:00:37.330Z,82.90
2018-09-23T23:03:09.925Z,83.40
2018-09-23T23:05:42.080Z,83.60
2018-09-23T23:08:14.395Z,83.50
2018-09-23T23:10:46.431Z,84.00
2018-09-23T23:13:18.614Z,83.50
2018-09-23T23:15:50.813Z,83.60
2018-09-23T23:18:22.750Z,83.40
2018-09-23T23:20:54.750Z,83.90
2018-09-23T23:23:27.300Z,83.50
2018-09-23T23:25:59.720Z,84.70
2018-09-23T23:28:32.561Z,84.00
2018-09-23T23:31:05.170Z,83.80
2018-09-23T23:33:37.330Z,83.80
2018-09-23T23:36:09.515Z,84.30
2018-09-23T23:38:41.434Z,84.20
2018-09-23T23:41:13.479Z,83.80
2018-09-23T23:43:45.470Z,84.10
2018-09-23T23:46:17.499Z,83.70
2018-09-23T23:48:49.597Z,83.80
2018-09-23T23:51:21.620Z,84.00
2018-09-23T23:53:53.662Z,84.00
2018-09-23T23:56:25.399Z,84.70
2018-09-23T23:58:57.398Z,85.30
